sensor_id;sensor_type;location;lat;lon;timestamp;P1;durP1;ratioP1;P2;durP2;ratioP2
8777;SDS011;4425;50.872;4.712;2022-11-20T00:01:14;29.50;;;24.90;;
8777;SDS011;4425;50.872;4.712;2022-11-20T00:03:47;33.17;;;24.47;;
8777;SDS011;4425;50.872;4.712;2022-11-20T00:06:17;27.33;;;24.00;;
8777;SDS011;4425;50.872;4.712;2022-11-20T00:08:47;29.20;;;24.20;;
8777;SDS011;4425;50.872;4.712;2022-11-20T00:11:16;31.20;;;25.33;;
8777;SDS011;4425;50.872;4.712;2022-11-20T00:13:47;29.93;;;25.63;;
8777;SDS011;4425;50.872;4.712;2022-11-20T00:16:16;29.47;;;25.27;;
8777;SDS011;4425;50.872;4.712;2022-11-20T00:18:48;28.60;;;24.70;;
8777;SDS011;4425;50.872;4.712;2022-11-20T00:21:16;31.33;;;24.87;;
8777;SDS011;4425;50.872;4.712;2022-11-20T00:23:45;29.27;;;24.40;;
8777;SDS011;4425;50.872;4.712;2022-11-20T00:26:13;31.33;;;25.03;;
8777;SDS011;4425;50.872;4.712;2022-11-20T00:28:43;30.43;;;25.73;;
8777;SDS011;4425;50.872;4.712;2022-11-20T00:31:13;28.90;;;24.40;;
8777;SDS011;4425;50.872;4.712;2022-11-20T00:33:42;27.77;;;24.23;;
8777;SDS011;4425;50.872;4.712;2022-11-20T00:36:15;28.03;;;23.90;;
8777;SDS011;4425;50.872;4.712;2022-11-20T00:38:45;30.53;;;24.87;;
8777;SDS011;4425;50.872;4.712;2022-11-20T00:41:15;27.97;;;24.63;;
8777;SDS011;4425;50.872;4.712;2022-11-20T00:43:42;30.03;;;23.60;;
8777;SDS011;4425;50.872;4.712;2022-11-20T00:46:12;26.03;;;22.90;;
8777;SDS011;4425;50.872;4.712;2022-11-20T00:48:40;31.57;;;23.70;;
8777;SDS011;4425;50.872;4.712;2022-11-20T00:51:08;28.07;;;24.27;;
8777;SDS011;4425;50.872;4.712;2022-11-20T00:53:38;28.90;;;24.17;;
8777;SDS011;4425;50.872;4.712;2022-11-20T00:56:07;31.17;;;25.03;;
8777;SDS011;4425;50.872;4.712;2022-11-20T00:58:37;30.03;;;25.40;;
8777;SDS011;4425;50.872;4.712;2022-11-20T01:01:06;32.13;;;25.10;;
8777;SDS011;4425;50.872;4.712;2022-11-20T01:03:35;31.43;;;25.17;;
8777;SDS011;4425;50.872;4.712;2022-11-20T01:06:04;31.50;;;25.07;;
8777;SDS011;4425;50.872;4.712;2022-11-20T01:08:32;29.57;;;24.50;;
8777;SDS011;4425;50.872;4.712;2022-11-20T01:11:04;30.63;;;25.17;;
8777;SDS011;4425;50.872;4.712;2022-11-20T01:13:32;32.03;;;24.27;;
8777;SDS011;4425;50.872;4.712;2022-11-20T01:16:10;27.97;;;22.60;;
8777;SDS011;4425;50.872;4.712;2022-11-20T01:18:40;28.43;;;22.97;;
8777;SDS011;4425;50.872;4.712;2022-11-20T01:21:10;27.37;;;23.27;;
8777;SDS011;4425;50.872;4.712;2022-11-20T01:23:41;26.40;;;22.23;;
8777;SDS011;4425;50.872;4.712;2022-11-20T01:26:11;29.90;;;25.17;;
8777;SDS011;4425;50.872;4.712;2022-11-20T01:28:39;31.47;;;25.83;;
8777;SDS011;4425;50.872;4.712;2022-11-20T01:31:10;32.90;;;24.90;;
8777;SDS011;4425;50.872;4.712;2022-11-20T01:36:10;34.00;;;26.57;;
8777;SDS011;4425;50.872;4.712;2022-11-20T01:38:39;32.30;;;24.87;;
8777;SDS011;4425;50.872;4.712;2022-11-20T01:41:08;31.33;;;24.67;;
8777;SDS011;4425;50.872;4.712;2022-11-20T01:43:57;32.67;;;24.87;;
8777;SDS011;4425;50.872;4.712;2022-11-20T01:46:24;31.10;;;25.17;;
8777;SDS011;4425;50.872;4.712;2022-11-20T01:48:53;30.47;;;25.30;;
8777;SDS011;4425;50.872;4.712;2022-11-20T01:51:26;29.30;;;24.37;;
8777;SDS011;4425;50.872;4.712;2022-11-20T01:54:00;33.67;;;29.30;;
8777;SDS011;4425;50.872;4.712;2022-11-20T01:56:50;34.37;;;26.97;;
8777;SDS011;4425;50.872;4.712;2022-11-20T01:59:19;32.97;;;26.13;;
8777;SDS011;4425;50.872;4.712;2022-11-20T02:01:48;30.90;;;25.67;;
8777;SDS011;4425;50.872;4.712;2022-11-20T02:04:16;35.53;;;27.00;;
8777;SDS011;4425;50.872;4.712;2022-11-20T02:06:46;31.43;;;27.43;;
8777;SDS011;4425;50.872;4.712;2022-11-20T02:09:20;32.47;;;26.47;;
8777;SDS011;4425;50.872;4.712;2022-11-20T02:11:53;32.23;;;26.83;;
8777;SDS011;4425;50.872;4.712;2022-11-20T02:14:25;33.67;;;26.47;;
8777;SDS011;4425;50.872;4.712;2022-11-20T02:16:54;34.00;;;26.87;;
8777;SDS011;4425;50.872;4.712;2022-11-20T02:19:22;36.07;;;27.50;;
8777;SDS011;4425;50.872;4.712;2022-11-20T02:21:55;35.33;;;27.83;;
8777;SDS011;4425;50.872;4.712;2022-11-20T02:24:35;36.30;;;28.93;;
8777;SDS011;4425;50.872;4.712;2022-11-20T02:27:11;39.23;;;29.53;;
8777;SDS011;4425;50.872;4.712;2022-11-20T02:29:44;38.13;;;29.03;;
8777;SDS011;4425;50.872;4.712;2022-11-20T02:32:18;35.43;;;29.20;;
8777;SDS011;4425;50.872;4.712;2022-11-20T02:34:51;36.80;;;28.67;;
8777;SDS011;4425;50.872;4.712;2022-11-20T02:37:20;34.33;;;28.13;;
8777;SDS011;4425;50.872;4.712;2022-11-20T02:39:52;40.60;;;29.20;;
8777;SDS011;4425;50.872;4.712;2022-11-20T02:42:20;35.77;;;29.17;;
8777;SDS011;4425;50.872;4.712;2022-11-20T02:44:52;37.80;;;30.67;;
8777;SDS011;4425;50.872;4.712;2022-11-20T02:47:20;41.77;;;30.93;;
8777;SDS011;4425;50.872;4.712;2022-11-20T02:49:47;38.70;;;30.70;;
8777;SDS011;4425;50.872;4.712;2022-11-20T02:52:17;36.57;;;30.63;;
8777;SDS011;4425;50.872;4.712;2022-11-20T02:54:54;39.53;;;30.63;;
8777;SDS011;4425;50.872;4.712;2022-11-20T02:57:24;39.10;;;31.03;;
8777;SDS011;4425;50.872;4.712;2022-11-20T02:59:52;41.47;;;31.17;;
8777;SDS011;4425;50.872;4.712;2022-11-20T03:02:22;44.23;;;32.33;;
8777;SDS011;4425;50.872;4.712;2022-11-20T03:04:50;39.37;;;31.30;;
8777;SDS011;4425;50.872;4.712;2022-11-20T03:07:17;45.07;;;31.87;;
8777;SDS011;4425;50.872;4.712;2022-11-20T03:09:55;38.50;;;29.87;;
8777;SDS011;4425;50.872;4.712;2022-11-20T03:12:28;40.57;;;31.97;;
8777;SDS011;4425;50.872;4.712;2022-11-20T03:14:57;41.87;;;32.20;;
8777;SDS011;4425;50.872;4.712;2022-11-20T03:17:29;44.93;;;33.77;;
8777;SDS011;4425;50.872;4.712;2022-11-20T03:19:58;44.63;;;31.57;;
8777;SDS011;4425;50.872;4.712;2022-11-20T03:22:28;49.43;;;33.97;;
8777;SDS011;4425;50.872;4.712;2022-11-20T03:27:43;45.67;;;34.23;;
8777;SDS011;4425;50.872;4.712;2022-11-20T03:30:11;45.50;;;33.47;;
8777;SDS011;4425;50.872;4.712;2022-11-20T03:32:42;46.90;;;34.37;;
8777;SDS011;4425;50.872;4.712;2022-11-20T03:35:10;45.93;;;33.13;;
8777;SDS011;4425;50.872;4.712;2022-11-20T03:37:52;46.50;;;33.80;;
8777;SDS011;4425;50.872;4.712;2022-11-20T03:40:25;44.83;;;33.93;;
8777;SDS011;4425;50.872;4.712;2022-11-20T03:42:57;46.93;;;33.00;;
8777;SDS011;4425;50.872;4.712;2022-11-20T03:45:28;46.73;;;32.37;;
8777;SDS011;4425;50.872;4.712;2022-11-20T03:47:59;48.33;;;33.20;;
8777;SDS011;4425;50.872;4.712;2022-11-20T03:50:27;43.83;;;31.70;;
8777;SDS011;4425;50.872;4.712;2022-11-20T03:52:56;41.57;;;31.00;;
8777;SDS011;4425;50.872;4.712;2022-11-20T03:55:26;43.90;;;31.00;;
8777;SDS011;4425;50.872;4.712;2022-11-20T03:57:54;43.97;;;32.03;;
8777;SDS011;4425;50.872;4.712;2022-11-20T04:00:22;41.90;;;31.00;;
8777;SDS011;4425;50.872;4.712;2022-11-20T04:03:01;47.77;;;32.93;;
8777;SDS011;4425;50.872;4.712;2022-11-20T04:05:32;39.50;;;31.27;;
8777;SDS011;4425;50.872;4.712;2022-11-20T04:08:03;40.97;;;31.27;;
8777;SDS011;4425;50.872;4.712;2022-11-20T04:10:40;43.90;;;31.83;;
8777;SDS011;4425;50.872;4.712;2022-11-20T04:13:09;43.50;;;30.73;;
8777;SDS011;4425;50.872;4.712;2022-11-20T04:15:37;44.20;;;31.63;;
8777;SDS011;4425;50.872;4.712;2022-11-20T04:18:04;48.13;;;31.07;;
8777;SDS011;4425;50.872;4.712;2022-11-20T04:20:31;39.63;;;30.27;;
8777;SDS011;4425;50.872;4.712;2022-11-20T04:22:58;41.50;;;31.37;;
8777;SDS011;4425;50.872;4.712;2022-11-20T04:25:26;39.60;;;29.13;;
8777;SDS011;4425;50.872;4.712;2022-11-20T04:27:58;40.93;;;29.83;;
8777;SDS011;4425;50.872;4.712;2022-11-20T04:30:27;40.07;;;30.23;;
8777;SDS011;4425;50.872;4.712;2022-11-20T04:32:55;40.93;;;30.60;;
8777;SDS011;4425;50.872;4.712;2022-11-20T04:35:22;40.60;;;29.60;;
8777;SDS011;4425;50.872;4.712;2022-11-20T04:37:50;38.13;;;30.27;;
8777;SDS011;4425;50.872;4.712;2022-11-20T04:40:18;41.13;;;28.60;;
8777;SDS011;4425;50.872;4.712;2022-11-20T04:42:47;34.20;;;27.67;;
8777;SDS011;4425;50.872;4.712;2022-11-20T04:45:15;37.37;;;28.43;;
8777;SDS011;4425;50.872;4.712;2022-11-20T04:47:43;37.10;;;28.73;;
8777;SDS011;4425;50.872;4.712;2022-11-20T04:50:10;36.87;;;26.43;;
8777;SDS011;4425;50.872;4.712;2022-11-20T04:52:40;42.73;;;27.90;;
8777;SDS011;4425;50.872;4.712;2022-11-20T04:55:07;35.80;;;26.93;;
8777;SDS011;4425;50.872;4.712;2022-11-20T04:57:37;35.93;;;26.33;;
8777;SDS011;4425;50.872;4.712;2022-11-20T05:00:06;32.70;;;25.27;;
8777;SDS011;4425;50.872;4.712;2022-11-20T05:05:23;36.13;;;27.37;;
8777;SDS011;4425;50.872;4.712;2022-11-20T05:07:52;34.50;;;26.77;;
8777;SDS011;4425;50.872;4.712;2022-11-20T05:10:21;36.97;;;29.37;;
8777;SDS011;4425;50.872;4.712;2022-11-20T05:12:50;39.77;;;28.13;;
8777;SDS011;4425;50.872;4.712;2022-11-20T05:15:17;38.57;;;29.10;;
8777;SDS011;4425;50.872;4.712;2022-11-20T05:17:53;41.77;;;29.60;;
8777;SDS011;4425;50.872;4.712;2022-11-20T05:20:22;40.93;;;29.23;;
8777;SDS011;4425;50.872;4.712;2022-11-20T05:22:49;38.73;;;28.00;;
8777;SDS011;4425;50.872;4.712;2022-11-20T05:25:17;42.97;;;29.50;;
8777;SDS011;4425;50.872;4.712;2022-11-20T05:27:46;36.90;;;28.83;;
8777;SDS011;4425;50.872;4.712;2022-11-20T05:30:16;41.83;;;29.27;;
8777;SDS011;4425;50.872;4.712;2022-11-20T05:32:53;39.67;;;28.60;;
8777;SDS011;4425;50.872;4.712;2022-11-20T05:35:32;37.13;;;28.37;;
8777;SDS011;4425;50.872;4.712;2022-11-20T05:38:04;39.30;;;28.00;;
8777;SDS011;4425;50.872;4.712;2022-11-20T05:40:38;36.00;;;27.30;;
8777;SDS011;4425;50.872;4.712;2022-11-20T05:43:19;36.93;;;27.60;;
8777;SDS011;4425;50.872;4.712;2022-11-20T05:45:57;36.10;;;26.77;;
8777;SDS011;4425;50.872;4.712;2022-11-20T05:48:59;36.53;;;27.07;;
8777;SDS011;4425;50.872;4.712;2022-11-20T05:51:40;36.77;;;27.13;;
8777;SDS011;4425;50.872;4.712;2022-11-20T05:54:18;39.77;;;26.87;;
8777;SDS011;4425;50.872;4.712;2022-11-20T05:56:58;34.53;;;25.97;;
8777;SDS011;4425;50.872;4.712;2022-11-20T05:59:30;35.93;;;27.43;;
8777;SDS011;4425;50.872;4.712;2022-11-20T06:02:00;37.80;;;27.40;;
8777;SDS011;4425;50.872;4.712;2022-11-20T06:04:30;40.23;;;27.87;;
8777;SDS011;4425;50.872;4.712;2022-11-20T06:06:59;40.17;;;28.40;;
8777;SDS011;4425;50.872;4.712;2022-11-20T06:09:35;37.37;;;28.33;;
8777;SDS011;4425;50.872;4.712;2022-11-20T06:12:11;38.27;;;27.83;;
8777;SDS011;4425;50.872;4.712;2022-11-20T06:14:42;38.60;;;28.13;;
8777;SDS011;4425;50.872;4.712;2022-11-20T06:17:09;38.70;;;27.47;;
8777;SDS011;4425;50.872;4.712;2022-11-20T06:19:38;45.17;;;29.47;;
8777;SDS011;4425;50.872;4.712;2022-11-20T06:22:07;40.47;;;28.63;;
8777;SDS011;4425;50.872;4.712;2022-11-20T06:24:35;41.87;;;28.80;;
8777;SDS011;4425;50.872;4.712;2022-11-20T06:27:10;42.93;;;28.87;;
8777;SDS011;4425;50.872;4.712;2022-11-20T06:29:39;46.00;;;29.33;;
8777;SDS011;4425;50.872;4.712;2022-11-20T06:32:10;40.43;;;28.70;;
8777;SDS011;4425;50.872;4.712;2022-11-20T06:37:14;44.30;;;31.47;;
8777;SDS011;4425;50.872;4.712;2022-11-20T06:39:49;48.00;;;31.07;;
8777;SDS011;4425;50.872;4.712;2022-11-20T06:42:19;51.63;;;32.43;;
8777;SDS011;4425;50.872;4.712;2022-11-20T06:44:50;52.43;;;32.50;;
8777;SDS011;4425;50.872;4.712;2022-11-20T06:47:19;54.83;;;32.60;;
8777;SDS011;4425;50.872;4.712;2022-11-20T06:49:50;56.23;;;33.83;;
8777;SDS011;4425;50.872;4.712;2022-11-20T06:52:19;56.87;;;33.40;;
8777;SDS011;4425;50.872;4.712;2022-11-20T06:54:47;60.77;;;33.83;;
8777;SDS011;4425;50.872;4.712;2022-11-20T06:57:25;61.83;;;34.87;;
8777;SDS011;4425;50.872;4.712;2022-11-20T06:59:56;57.60;;;34.27;;
8777;SDS011;4425;50.872;4.712;2022-11-20T07:02:34;67.27;;;34.87;;
8777;SDS011;4425;50.872;4.712;2022-11-20T07:05:06;73.33;;;37.13;;
8777;SDS011;4425;50.872;4.712;2022-11-20T07:07:34;68.77;;;36.27;;
8777;SDS011;4425;50.872;4.712;2022-11-20T07:12:48;75.20;;;37.33;;
8777;SDS011;4425;50.872;4.712;2022-11-20T07:15:17;77.27;;;37.43;;
8777;SDS011;4425;50.872;4.712;2022-11-20T07:17:49;81.00;;;37.10;;
8777;SDS011;4425;50.872;4.712;2022-11-20T07:20:28;74.63;;;36.63;;
8777;SDS011;4425;50.872;4.712;2022-11-20T07:23:00;72.47;;;35.97;;
8777;SDS011;4425;50.872;4.712;2022-11-20T07:25:28;72.73;;;37.67;;
8777;SDS011;4425;50.872;4.712;2022-11-20T07:27:56;76.13;;;37.43;;
8777;SDS011;4425;50.872;4.712;2022-11-20T07:30:26;79.60;;;36.27;;
8777;SDS011;4425;50.872;4.712;2022-11-20T07:32:54;82.47;;;37.10;;
8777;SDS011;4425;50.872;4.712;2022-11-20T07:35:25;77.63;;;37.57;;
8777;SDS011;4425;50.872;4.712;2022-11-20T07:37:55;79.73;;;37.33;;
8777;SDS011;4425;50.872;4.712;2022-11-20T07:40:25;83.70;;;37.90;;
8777;SDS011;4425;50.872;4.712;2022-11-20T07:42:54;76.03;;;36.50;;
8777;SDS011;4425;50.872;4.712;2022-11-20T07:45:24;83.87;;;38.23;;
8777;SDS011;4425;50.872;4.712;2022-11-20T07:47:53;82.47;;;37.40;;
8777;SDS011;4425;50.872;4.712;2022-11-20T07:50:20;77.40;;;37.70;;
8777;SDS011;4425;50.872;4.712;2022-11-20T07:52:54;79.27;;;38.77;;
8777;SDS011;4425;50.872;4.712;2022-11-20T07:55:32;79.47;;;38.33;;
8777;SDS011;4425;50.872;4.712;2022-11-20T07:58:00;88.90;;;39.53;;
8777;SDS011;4425;50.872;4.712;2022-11-20T08:00:29;83.63;;;39.60;;
8777;SDS011;4425;50.872;4.712;2022-11-20T08:05:30;83.13;;;40.77;;
8777;SDS011;4425;50.872;4.712;2022-11-20T08:10:48;81.67;;;39.60;;
8777;SDS011;4425;50.872;4.712;2022-11-20T08:13:15;83.30;;;38.00;;
8777;SDS011;4425;50.872;4.712;2022-11-20T08:16:03;80.27;;;39.93;;
8777;SDS011;4425;50.872;4.712;2022-11-20T08:18:48;71.73;;;36.60;;
8777;SDS011;4425;50.872;4.712;2022-11-20T08:21:16;81.37;;;38.53;;
8777;SDS011;4425;50.872;4.712;2022-11-20T08:23:58;77.63;;;36.73;;
8777;SDS011;4425;50.872;4.712;2022-11-20T08:26:27;74.90;;;36.27;;
8777;SDS011;4425;50.872;4.712;2022-11-20T08:29:05;82.03;;;36.47;;
8777;SDS011;4425;50.872;4.712;2022-11-20T08:31:38;74.37;;;36.90;;
8777;SDS011;4425;50.872;4.712;2022-11-20T08:34:08;80.27;;;36.00;;
8777;SDS011;4425;50.872;4.712;2022-11-20T08:36:36;83.13;;;37.17;;
8777;SDS011;4425;50.872;4.712;2022-11-20T08:39:11;75.80;;;35.80;;
8777;SDS011;4425;50.872;4.712;2022-11-20T08:41:43;77.13;;;36.97;;
8777;SDS011;4425;50.872;4.712;2022-11-20T08:44:18;72.53;;;35.77;;
8777;SDS011;4425;50.872;4.712;2022-11-20T08:46:49;73.77;;;36.57;;
8777;SDS011;4425;50.872;4.712;2022-11-20T08:49:23;72.67;;;34.93;;
8777;SDS011;4425;50.872;4.712;2022-11-20T08:52:05;69.93;;;34.47;;
8777;SDS011;4425;50.872;4.712;2022-11-20T08:54:42;77.90;;;35.10;;
8777;SDS011;4425;50.872;4.712;2022-11-20T08:59:45;75.83;;;34.90;;
8777;SDS011;4425;50.872;4.712;2022-11-20T09:02:13;69.80;;;34.40;;
8777;SDS011;4425;50.872;4.712;2022-11-20T09:07:20;68.20;;;33.97;;
8777;SDS011;4425;50.872;4.712;2022-11-20T09:09:50;72.83;;;34.43;;
8777;SDS011;4425;50.872;4.712;2022-11-20T09:12:19;75.20;;;34.07;;
8777;SDS011;4425;50.872;4.712;2022-11-20T09:15:37;80.67;;;34.57;;
8777;SDS011;4425;50.872;4.712;2022-11-20T09:18:38;77.90;;;35.50;;
8777;SDS011;4425;50.872;4.712;2022-11-20T09:21:09;77.37;;;33.37;;
8777;SDS011;4425;50.872;4.712;2022-11-20T09:23:54;72.63;;;33.37;;
8777;SDS011;4425;50.872;4.712;2022-11-20T09:26:23;76.97;;;34.40;;
8777;SDS011;4425;50.872;4.712;2022-11-20T09:28:52;73.87;;;32.10;;
8777;SDS011;4425;50.872;4.712;2022-11-20T09:31:23;76.80;;;32.93;;
8777;SDS011;4425;50.872;4.712;2022-11-20T09:36:26;66.27;;;31.30;;
8777;SDS011;4425;50.872;4.712;2022-11-20T09:38:54;73.03;;;32.30;;
8777;SDS011;4425;50.872;4.712;2022-11-20T09:44:40;74.30;;;33.47;;
8777;SDS011;4425;50.872;4.712;2022-11-20T09:47:35;70.20;;;31.67;;
8777;SDS011;4425;50.872;4.712;2022-11-20T09:50:31;65.10;;;31.57;;
8777;SDS011;4425;50.872;4.712;2022-11-20T09:53:08;66.03;;;32.10;;
8777;SDS011;4425;50.872;4.712;2022-11-20T09:55:42;64.17;;;31.33;;
8777;SDS011;4425;50.872;4.712;2022-11-20T10:01:09;62.40;;;29.17;;
8777;SDS011;4425;50.872;4.712;2022-11-20T10:03:41;55.97;;;27.87;;
8777;SDS011;4425;50.872;4.712;2022-11-20T10:06:18;54.90;;;28.50;;
8777;SDS011;4425;50.872;4.712;2022-11-20T10:08:54;54.00;;;27.43;;
8777;SDS011;4425;50.872;4.712;2022-11-20T10:11:30;56.30;;;27.83;;
8777;SDS011;4425;50.872;4.712;2022-11-20T10:14:16;53.10;;;27.33;;
8777;SDS011;4425;50.872;4.712;2022-11-20T10:17:00;48.43;;;26.90;;
8777;SDS011;4425;50.872;4.712;2022-11-20T10:19:41;53.93;;;28.43;;
8777;SDS011;4425;50.872;4.712;2022-11-20T10:22:37;46.17;;;25.57;;
8777;SDS011;4425;50.872;4.712;2022-11-20T10:25:19;44.57;;;25.47;;
8777;SDS011;4425;50.872;4.712;2022-11-20T10:34:02;40.70;;;23.13;;
8777;SDS011;4425;50.872;4.712;2022-11-20T10:40:14;40.10;;;21.87;;
8777;SDS011;4425;50.872;4.712;2022-11-20T10:48:49;32.77;;;19.33;;
8777;SDS011;4425;50.872;4.712;2022-11-20T10:51:21;32.40;;;18.87;;
8777;SDS011;4425;50.872;4.712;2022-11-20T10:54:06;30.03;;;17.47;;
8777;SDS011;4425;50.872;4.712;2022-11-20T10:56:45;27.27;;;17.13;;
8777;SDS011;4425;50.872;4.712;2022-11-20T10:59:21;26.33;;;15.80;;
8777;SDS011;4425;50.872;4.712;2022-11-20T11:02:16;22.77;;;14.93;;
8777;SDS011;4425;50.872;4.712;2022-11-20T11:04:53;25.63;;;14.70;;
8777;SDS011;4425;50.872;4.712;2022-11-20T11:07:30;17.17;;;12.63;;
8777;SDS011;4425;50.872;4.712;2022-11-20T11:13:05;15.60;;;11.13;;
8777;SDS011;4425;50.872;4.712;2022-11-20T11:15:37;18.97;;;11.63;;
8777;SDS011;4425;50.872;4.712;2022-11-20T11:18:08;16.80;;;10.90;;
8777;SDS011;4425;50.872;4.712;2022-11-20T11:20:49;14.30;;;9.57;;
8777;SDS011;4425;50.872;4.712;2022-11-20T11:23:34;16.47;;;9.70;;
8777;SDS011;4425;50.872;4.712;2022-11-20T11:26:25;16.60;;;9.53;;
8777;SDS011;4425;50.872;4.712;2022-11-20T11:29:18;13.03;;;9.23;;
8777;SDS011;4425;50.872;4.712;2022-11-20T11:34:58;12.33;;;7.60;;
8777;SDS011;4425;50.872;4.712;2022-11-20T11:37:46;10.70;;;7.73;;
8777;SDS011;4425;50.872;4.712;2022-11-20T11:43:16;7.90;;;6.33;;
8777;SDS011;4425;50.872;4.712;2022-11-20T11:46:13;7.73;;;6.13;;
8777;SDS011;4425;50.872;4.712;2022-11-20T11:49:14;11.83;;;7.77;;
8777;SDS011;4425;50.872;4.712;2022-11-20T11:51:47;9.60;;;5.60;;
8777;SDS011;4425;50.872;4.712;2022-11-20T11:54:36;9.63;;;5.77;;
8777;SDS011;4425;50.872;4.712;2022-11-20T11:57:15;11.33;;;4.47;;
8777;SDS011;4425;50.872;4.712;2022-11-20T11:59:56;5.80;;;4.10;;
8777;SDS011;4425;50.872;4.712;2022-11-20T12:02:35;6.53;;;3.83;;
8777;SDS011;4425;50.872;4.712;2022-11-20T12:05:09;6.77;;;3.93;;
8777;SDS011;4425;50.872;4.712;2022-11-20T12:07:45;8.10;;;5.67;;
8777;SDS011;4425;50.872;4.712;2022-11-20T12:13:27;7.13;;;3.37;;
8777;SDS011;4425;50.872;4.712;2022-11-20T12:16:05;5.43;;;3.33;;
8777;SDS011;4425;50.872;4.712;2022-11-20T12:18:38;5.67;;;2.93;;
8777;SDS011;4425;50.872;4.712;2022-11-20T12:21:11;8.03;;;3.50;;
8777;SDS011;4425;50.872;4.712;2022-11-20T12:30:19;5.57;;;2.73;;
8777;SDS011;4425;50.872;4.712;2022-11-20T12:33:08;5.97;;;3.30;;
8777;SDS011;4425;50.872;4.712;2022-11-20T12:36:06;7.80;;;3.10;;
8777;SDS011;4425;50.872;4.712;2022-11-20T12:38:45;6.30;;;2.87;;
8777;SDS011;4425;50.872;4.712;2022-11-20T12:41:28;3.63;;;2.97;;
8777;SDS011;4425;50.872;4.712;2022-11-20T12:44:43;4.07;;;3.10;;
8777;SDS011;4425;50.872;4.712;2022-11-20T12:47:38;6.70;;;3.10;;
8777;SDS011;4425;50.872;4.712;2022-11-20T12:50:22;8.60;;;3.30;;
8777;SDS011;4425;50.872;4.712;2022-11-20T12:53:33;6.43;;;2.80;;
8777;SDS011;4425;50.872;4.712;2022-11-20T12:56:17;5.33;;;3.53;;
8777;SDS011;4425;50.872;4.712;2022-11-20T12:59:21;6.33;;;3.07;;
8777;SDS011;4425;50.872;4.712;2022-11-20T13:06:03;7.87;;;3.43;;
8777;SDS011;4425;50.872;4.712;2022-11-20T13:08:50;5.07;;;3.77;;
8777;SDS011;4425;50.872;4.712;2022-11-20T13:12:22;7.63;;;3.87;;
8777;SDS011;4425;50.872;4.712;2022-11-20T13:15:24;8.50;;;4.67;;
8777;SDS011;4425;50.872;4.712;2022-11-20T13:21:37;9.63;;;3.60;;
8777;SDS011;4425;50.872;4.712;2022-11-20T13:24:28;5.77;;;3.70;;
8777;SDS011;4425;50.872;4.712;2022-11-20T13:27:19;4.87;;;3.50;;
8777;SDS011;4425;50.872;4.712;2022-11-20T13:30:13;7.80;;;3.80;;
8777;SDS011;4425;50.872;4.712;2022-11-20T13:33:22;7.03;;;3.70;;
8777;SDS011;4425;50.872;4.712;2022-11-20T14:10:25;3.33;;;3.10;;
8777;SDS011;4425;50.872;4.712;2022-11-20T14:12:55;5.37;;;3.27;;
8777;SDS011;4425;50.872;4.712;2022-11-20T14:15:48;3.50;;;3.20;;
8777;SDS011;4425;50.872;4.712;2022-11-20T14:19:16;4.47;;;3.07;;
8777;SDS011;4425;50.872;4.712;2022-11-20T14:22:17;3.47;;;3.13;;
8777;SDS011;4425;50.872;4.712;2022-11-20T14:25:02;4.97;;;3.10;;
8777;SDS011;4425;50.872;4.712;2022-11-20T14:42:43;6.37;;;3.30;;
8777;SDS011;4425;50.872;4.712;2022-11-20T14:45:28;3.27;;;2.93;;
8777;SDS011;4425;50.872;4.712;2022-11-20T14:48:10;3.40;;;3.00;;
8777;SDS011;4425;50.872;4.712;2022-11-20T14:50:42;2.97;;;2.67;;
8777;SDS011;4425;50.872;4.712;2022-11-20T14:53:21;2.70;;;2.50;;
8777;SDS011;4425;50.872;4.712;2022-11-20T14:56:01;2.80;;;2.60;;
8777;SDS011;4425;50.872;4.712;2022-11-20T14:58:36;3.03;;;2.50;;
8777;SDS011;4425;50.872;4.712;2022-11-20T15:01:05;2.53;;;2.43;;
8777;SDS011;4425;50.872;4.712;2022-11-20T15:03:34;3.10;;;2.50;;
8777;SDS011;4425;50.872;4.712;2022-11-20T15:06:02;3.77;;;2.50;;
8777;SDS011;4425;50.872;4.712;2022-11-20T15:08:36;3.57;;;2.60;;
8777;SDS011;4425;50.872;4.712;2022-11-20T15:23:13;3.93;;;3.63;;
8777;SDS011;4425;50.872;4.712;2022-11-20T15:25:47;4.33;;;3.67;;
8777;SDS011;4425;50.872;4.712;2022-11-20T15:28:30;4.00;;;3.70;;
8777;SDS011;4425;50.872;4.712;2022-11-20T15:31:01;4.30;;;3.93;;
8777;SDS011;4425;50.872;4.712;2022-11-20T15:33:29;4.93;;;3.83;;
8777;SDS011;4425;50.872;4.712;2022-11-20T15:36:22;3.93;;;3.57;;
8777;SDS011;4425;50.872;4.712;2022-11-20T15:38:50;3.87;;;3.57;;
8777;SDS011;4425;50.872;4.712;2022-11-20T15:41:17;4.07;;;3.77;;
8777;SDS011;4425;50.872;4.712;2022-11-20T15:43:56;4.07;;;3.53;;
8777;SDS011;4425;50.872;4.712;2022-11-20T15:46:25;5.50;;;4.00;;
8777;SDS011;4425;50.872;4.712;2022-11-20T15:48:56;6.87;;;3.50;;
8777;SDS011;4425;50.872;4.712;2022-11-20T15:51:30;5.17;;;4.10;;
8777;SDS011;4425;50.872;4.712;2022-11-20T15:54:00;4.63;;;4.23;;
8777;SDS011;4425;50.872;4.712;2022-11-20T15:56:35;5.73;;;4.50;;
8777;SDS011;4425;50.872;4.712;2022-11-20T15:59:06;7.40;;;4.60;;
8777;SDS011;4425;50.872;4.712;2022-11-20T16:01:47;5.77;;;4.30;;
8777;SDS011;4425;50.872;4.712;2022-11-20T16:04:16;4.47;;;4.03;;
8777;SDS011;4425;50.872;4.712;2022-11-20T16:12:46;6.80;;;4.10;;
8777;SDS011;4425;50.872;4.712;2022-11-20T16:15:31;11.30;;;4.37;;
8777;SDS011;4425;50.872;4.712;2022-11-20T16:18:17;9.57;;;4.40;;
8777;SDS011;4425;50.872;4.712;2022-11-20T16:20:53;5.07;;;4.30;;
8777;SDS011;4425;50.872;4.712;2022-11-20T16:23:23;7.87;;;4.20;;
8777;SDS011;4425;50.872;4.712;2022-11-20T16:29:03;8.40;;;4.63;;
8777;SDS011;4425;50.872;4.712;2022-11-20T16:34:35;13.37;;;5.03;;
8777;SDS011;4425;50.872;4.712;2022-11-20T16:37:05;12.93;;;4.23;;
8777;SDS011;4425;50.872;4.712;2022-11-20T16:39:34;10.00;;;4.10;;
8777;SDS011;4425;50.872;4.712;2022-11-20T16:42:11;11.77;;;4.90;;
8777;SDS011;4425;50.872;4.712;2022-11-20T16:44:41;12.23;;;4.40;;
8777;SDS011;4425;50.872;4.712;2022-11-20T16:47:14;11.37;;;4.63;;
8777;SDS011;4425;50.872;4.712;2022-11-20T16:49:52;16.07;;;4.60;;
8777;SDS011;4425;50.872;4.712;2022-11-20T16:52:29;15.03;;;5.07;;
8777;SDS011;4425;50.872;4.712;2022-11-20T16:54:58;12.47;;;4.17;;
8777;SDS011;4425;50.872;4.712;2022-11-20T16:57:31;13.57;;;4.67;;
8777;SDS011;4425;50.872;4.712;2022-11-20T17:00:19;14.17;;;4.50;;
8777;SDS011;4425;50.872;4.712;2022-11-20T17:02:57;11.50;;;4.23;;
8777;SDS011;4425;50.872;4.712;2022-11-20T17:05:30;15.47;;;4.77;;
8777;SDS011;4425;50.872;4.712;2022-11-20T17:10:38;12.03;;;4.47;;
8777;SDS011;4425;50.872;4.712;2022-11-20T17:13:24;13.10;;;4.87;;
8777;SDS011;4425;50.872;4.712;2022-11-20T17:15:53;14.73;;;4.60;;
8777;SDS011;4425;50.872;4.712;2022-11-20T17:18:29;15.43;;;5.20;;
8777;SDS011;4425;50.872;4.712;2022-11-20T17:21:00;14.83;;;4.77;;
8777;SDS011;4425;50.872;4.712;2022-11-20T17:23:29;19.87;;;4.93;;
8777;SDS011;4425;50.872;4.712;2022-11-20T17:26:01;10.77;;;4.27;;
8777;SDS011;4425;50.872;4.712;2022-11-20T17:31:08;9.60;;;3.80;;
8777;SDS011;4425;50.872;4.712;2022-11-20T17:33:39;14.27;;;3.80;;
8777;SDS011;4425;50.872;4.712;2022-11-20T17:36:08;15.93;;;3.87;;
8777;SDS011;4425;50.872;4.712;2022-11-20T17:38:38;7.53;;;2.77;;
8777;SDS011;4425;50.872;4.712;2022-11-20T17:41:08;8.50;;;2.70;;
8777;SDS011;4425;50.872;4.712;2022-11-20T17:43:37;6.87;;;2.13;;
8777;SDS011;4425;50.872;4.712;2022-11-20T17:46:09;6.93;;;2.33;;
8777;SDS011;4425;50.872;4.712;2022-11-20T17:48:57;4.30;;;2.00;;
8777;SDS011;4425;50.872;4.712;2022-11-20T17:51:26;6.07;;;2.33;;
8777;SDS011;4425;50.872;4.712;2022-11-20T17:54:02;5.10;;;2.40;;
8777;SDS011;4425;50.872;4.712;2022-11-20T17:56:49;6.07;;;2.13;;
8777;SDS011;4425;50.872;4.712;2022-11-20T17:59:35;7.57;;;2.20;;
8777;SDS011;4425;50.872;4.712;2022-11-20T18:02:06;3.43;;;1.60;;
8777;SDS011;4425;50.872;4.712;2022-11-20T18:04:35;4.83;;;1.83;;
8777;SDS011;4425;50.872;4.712;2022-11-20T18:07:08;4.53;;;1.93;;
8777;SDS011;4425;50.872;4.712;2022-11-20T18:09:50;4.60;;;2.13;;
8777;SDS011;4425;50.872;4.712;2022-11-20T18:12:23;6.13;;;2.10;;
8777;SDS011;4425;50.872;4.712;2022-11-20T18:14:52;5.17;;;1.73;;